sensor_id;sensor_type;location;lat;lon;timestamp;temperature;humidity
909;DHT22;441;51.192;6.788;2023-04-01T00:02:25;21.10;59.90
909;DHT22;441;51.192;6.788;2023-04-01T00:04:53;21.10;60.00
909;DHT22;441;51.192;6.788;2023-04-01T00:07:20;21.10;60.00
909;DHT22;441;51.192;6.788;2023-04-01T00:09:48;21.10;60.00
909;DHT22;441;51.192;6.788;2023-04-01T00:12:14;21.00;60.00
909;DHT22;441;51.192;6.788;2023-04-01T00:14:41;21.00;60.30
909;DHT22;441;51.192;6.788;2023-04-01T00:17:08;21.00;60.10
909;DHT22;441;51.192;6.788;2023-04-01T00:19:36;21.00;60.10
909;DHT22;441;51.192;6.788;2023-04-01T00:22:04;21.00;60.20
909;DHT22;441;51.192;6.788;2023-04-01T00:24:31;20.90;60.20
909;DHT22;441;51.192;6.788;2023-04-01T00:26:58;20.90;60.20
909;DHT22;441;51.192;6.788;2023-04-01T00:29:25;20.90;60.20
909;DHT22;441;51.192;6.788;2023-04-01T00:31:55;20.90;60.30
909;DHT22;441;51.192;6.788;2023-04-01T00:34:22;20.90;60.30
909;DHT22;441;51.192;6.788;2023-04-01T00:36:49;20.80;60.20
909;DHT22;441;51.192;6.788;2023-04-01T00:39:19;20.90;60.40
909;DHT22;441;51.192;6.788;2023-04-01T00:41:46;20.80;60.40
909;DHT22;441;51.192;6.788;2023-04-01T00:44:19;20.80;60.50
909;DHT22;441;51.192;6.788;2023-04-01T00:46:46;20.80;60.50
909;DHT22;441;51.192;6.788;2023-04-01T00:49:14;20.80;60.50
909;DHT22;441;51.192;6.788;2023-04-01T00:51:43;20.80;60.60
909;DHT22;441;51.192;6.788;2023-04-01T00:54:12;20.80;60.60
909;DHT22;441;51.192;6.788;2023-04-01T00:56:45;20.70;60.60
909;DHT22;441;51.192;6.788;2023-04-01T00:59:17;20.70;60.70
909;DHT22;441;51.192;6.788;2023-04-01T01:01:45;20.70;60.70
909;DHT22;441;51.192;6.788;2023-04-01T01:04:21;20.70;60.70
909;DHT22;441;51.192;6.788;2023-04-01T01:06:57;20.70;60.70
909;DHT22;441;51.192;6.788;2023-04-01T01:09:32;20.70;60.80
909;DHT22;441;51.192;6.788;2023-04-01T01:12:07;20.60;60.70
909;DHT22;441;51.192;6.788;2023-04-01T01:14:49;20.70;60.90
909;DHT22;441;51.192;6.788;2023-04-01T01:17:26;20.60;60.90
909;DHT22;441;51.192;6.788;2023-04-01T01:20:14;20.60;60.90
909;DHT22;441;51.192;6.788;2023-04-01T01:25:53;20.60;61.10
909;DHT22;441;51.192;6.788;2023-04-01T01:28:35;20.60;61.20
909;DHT22;441;51.192;6.788;2023-04-01T01:31:14;20.60;61.30
909;DHT22;441;51.192;6.788;2023-04-01T01:33:58;20.50;61.20
909;DHT22;441;51.192;6.788;2023-04-01T01:36:31;20.50;61.40
909;DHT22;441;51.192;6.788;2023-04-01T01:39:01;20.60;61.60
909;DHT22;441;51.192;6.788;2023-04-01T01:41:30;20.50;61.70
909;DHT22;441;51.192;6.788;2023-04-01T01:43:59;20.50;62.60
909;DHT22;441;51.192;6.788;2023-04-01T01:46:30;20.60;61.80
909;DHT22;441;51.192;6.788;2023-04-01T01:48:59;20.50;61.60
909;DHT22;441;51.192;6.788;2023-04-01T01:51:29;20.60;61.70
909;DHT22;441;51.192;6.788;2023-04-01T01:53:56;20.50;61.70
909;DHT22;441;51.192;6.788;2023-04-01T01:56:26;20.50;61.70
909;DHT22;441;51.192;6.788;2023-04-01T01:58:56;20.50;61.60
909;DHT22;441;51.192;6.788;2023-04-01T02:01:27;20.50;61.80
909;DHT22;441;51.192;6.788;2023-04-01T02:03:56;20.50;61.70
909;DHT22;441;51.192;6.788;2023-04-01T02:06:27;20.50;61.80
909;DHT22;441;51.192;6.788;2023-04-01T02:08:59;20.50;61.80
909;DHT22;441;51.192;6.788;2023-04-01T02:11:32;20.50;61.70
909;DHT22;441;51.192;6.788;2023-04-01T02:14:04;20.50;61.70
909;DHT22;441;51.192;6.788;2023-04-01T02:16:34;20.50;61.80
909;DHT22;441;51.192;6.788;2023-04-01T02:19:03;20.50;61.80
909;DHT22;441;51.192;6.788;2023-04-01T02:21:33;20.50;61.80
909;DHT22;441;51.192;6.788;2023-04-01T02:24:06;20.40;61.80
909;DHT22;441;51.192;6.788;2023-04-01T02:26:34;20.40;61.80
909;DHT22;441;51.192;6.788;2023-04-01T02:29:02;20.40;61.90
909;DHT22;441;51.192;6.788;2023-04-01T02:31:32;20.40;62.00
909;DHT22;441;51.192;6.788;2023-04-01T02:33:59;20.40;61.90
909;DHT22;441;51.192;6.788;2023-04-01T02:36:26;20.40;61.90
909;DHT22;441;51.192;6.788;2023-04-01T02:38:54;20.40;61.80
909;DHT22;441;51.192;6.788;2023-04-01T02:41:26;20.40;61.90
909;DHT22;441;51.192;6.788;2023-04-01T02:43:52;20.30;61.90
909;DHT22;441;51.192;6.788;2023-04-01T02:46:20;20.30;61.90
909;DHT22;441;51.192;6.788;2023-04-01T02:48:47;20.30;62.00
909;DHT22;441;51.192;6.788;2023-04-01T02:51:14;20.30;62.00
909;DHT22;441;51.192;6.788;2023-04-01T02:53:41;20.30;62.00
909;DHT22;441;51.192;6.788;2023-04-01T02:56:07;20.30;62.10
909;DHT22;441;51.192;6.788;2023-04-01T02:58:36;20.30;62.20
909;DHT22;441;51.192;6.788;2023-04-01T03:01:03;20.30;62.30
909;DHT22;441;51.192;6.788;2023-04-01T03:03:29;20.30;62.40
909;DHT22;441;51.192;6.788;2023-04-01T03:05:56;20.30;62.40
909;DHT22;441;51.192;6.788;2023-04-01T03:08:25;20.20;62.30
909;DHT22;441;51.192;6.788;2023-04-01T03:10:52;20.30;62.50
909;DHT22;441;51.192;6.788;2023-04-01T03:13:19;20.20;62.40
909;DHT22;441;51.192;6.788;2023-04-01T03:15:47;20.20;62.30
909;DHT22;441;51.192;6.788;2023-04-01T03:18:14;20.20;62.20
909;DHT22;441;51.192;6.788;2023-04-01T03:20:41;20.20;62.30
909;DHT22;441;51.192;6.788;2023-04-01T03:23:08;20.20;62.20
909;DHT22;441;51.192;6.788;2023-04-01T03:25:35;20.20;62.30
909;DHT22;441;51.192;6.788;2023-04-01T03:28:02;20.20;62.30
909;DHT22;441;51.192;6.788;2023-04-01T03:30:29;20.20;63.10
909;DHT22;441;51.192;6.788;2023-04-01T03:32:58;20.20;62.50
909;DHT22;441;51.192;6.788;2023-04-01T03:35:26;20.20;62.50
909;DHT22;441;51.192;6.788;2023-04-01T03:37:53;20.10;62.50
909;DHT22;441;51.192;6.788;2023-04-01T03:40:20;20.10;62.50
909;DHT22;441;51.192;6.788;2023-04-01T03:42:47;20.10;62.70
909;DHT22;441;51.192;6.788;2023-04-01T03:45:15;20.10;62.60
909;DHT22;441;51.192;6.788;2023-04-01T03:47:41;20.10;62.70
909;DHT22;441;51.192;6.788;2023-04-01T03:50:10;20.10;62.60
909;DHT22;441;51.192;6.788;2023-04-01T03:52:37;20.10;62.70
909;DHT22;441;51.192;6.788;2023-04-01T03:55:05;20.10;62.80
909;DHT22;441;51.192;6.788;2023-04-01T03:57:33;20.10;62.90
909;DHT22;441;51.192;6.788;2023-04-01T04:00:00;20.10;63.10
909;DHT22;441;51.192;6.788;2023-04-01T04:02:27;20.10;63.20
909;DHT22;441;51.192;6.788;2023-04-01T04:04:54;20.10;63.30
909;DHT22;441;51.192;6.788;2023-04-01T04:07:22;20.10;63.30
909;DHT22;441;51.192;6.788;2023-04-01T04:09:49;20.10;63.50
909;DHT22;441;51.192;6.788;2023-04-01T04:12:16;20.10;63.50
909;DHT22;441;51.192;6.788;2023-04-01T04:14:43;20.10;63.60
909;DHT22;441;51.192;6.788;2023-04-01T04:17:10;20.10;63.70
909;DHT22;441;51.192;6.788;2023-04-01T04:19:41;20.10;63.70
909;DHT22;441;51.192;6.788;2023-04-01T04:22:08;20.10;63.70
909;DHT22;441;51.192;6.788;2023-04-01T04:24:36;20.10;63.70
909;DHT22;441;51.192;6.788;2023-04-01T04:27:04;20.10;63.60
909;DHT22;441;51.192;6.788;2023-04-01T04:29:31;20.10;63.70
909;DHT22;441;51.192;6.788;2023-04-01T04:31:58;20.00;64.50
909;DHT22;441;51.192;6.788;2023-04-01T04:34:24;20.10;63.80
909;DHT22;441;51.192;6.788;2023-04-01T04:36:51;20.00;63.80
909;DHT22;441;51.192;6.788;2023-04-01T04:39:18;20.00;63.70
909;DHT22;441;51.192;6.788;2023-04-01T04:41:46;20.00;63.70
909;DHT22;441;51.192;6.788;2023-04-01T04:44:13;20.00;63.70
909;DHT22;441;51.192;6.788;2023-04-01T04:46:40;20.00;63.90
909;DHT22;441;51.192;6.788;2023-04-01T04:49:07;20.00;63.80
909;DHT22;441;51.192;6.788;2023-04-01T04:51:34;20.00;63.90
909;DHT22;441;51.192;6.788;2023-04-01T04:54:02;20.00;63.80
909;DHT22;441;51.192;6.788;2023-04-01T04:56:29;20.00;63.80
909;DHT22;441;51.192;6.788;2023-04-01T04:58:57;20.00;63.30
909;DHT22;441;51.192;6.788;2023-04-01T05:01:25;20.10;63.90
909;DHT22;441;51.192;6.788;2023-04-01T05:03:52;20.10;64.20
909;DHT22;441;51.192;6.788;2023-04-01T05:06:19;20.10;64.20
909;DHT22;441;51.192;6.788;2023-04-01T05:08:46;20.20;64.10
909;DHT22;441;51.192;6.788;2023-04-01T05:11:15;20.20;64.50
909;DHT22;441;51.192;6.788;2023-04-01T05:13:43;20.30;65.00
909;DHT22;441;51.192;6.788;2023-04-01T05:16:14;20.30;64.70
909;DHT22;441;51.192;6.788;2023-04-01T05:18:41;20.30;64.40
909;DHT22;441;51.192;6.788;2023-04-01T05:21:09;20.30;64.70
909;DHT22;441;51.192;6.788;2023-04-01T05:23:36;20.30;64.50
909;DHT22;441;51.192;6.788;2023-04-01T05:26:04;20.40;64.90
909;DHT22;441;51.192;6.788;2023-04-01T05:28:31;20.50;65.40
909;DHT22;441;51.192;6.788;2023-04-01T05:30:59;20.60;64.90
909;DHT22;441;51.192;6.788;2023-04-01T05:33:28;20.70;64.50
909;DHT22;441;51.192;6.788;2023-04-01T05:35:55;20.80;64.10
909;DHT22;441;51.192;6.788;2023-04-01T05:38:22;20.80;64.00
909;DHT22;441;51.192;6.788;2023-04-01T05:40:49;20.80;63.80
909;DHT22;441;51.192;6.788;2023-04-01T05:43:16;20.90;63.70
909;DHT22;441;51.192;6.788;2023-04-01T05:45:43;21.00;63.70
909;DHT22;441;51.192;6.788;2023-04-01T05:48:10;21.00;63.70
909;DHT22;441;51.192;6.788;2023-04-01T05:50:39;21.00;63.70
909;DHT22;441;51.192;6.788;2023-04-01T05:53:06;21.10;63.60
909;DHT22;441;51.192;6.788;2023-04-01T05:55:34;21.10;63.50
909;DHT22;441;51.192;6.788;2023-04-01T05:58:01;21.20;63.40
909;DHT22;441;51.192;6.788;2023-04-01T06:00:28;21.20;63.30
909;DHT22;441;51.192;6.788;2023-04-01T06:02:58;21.20;63.20
909;DHT22;441;51.192;6.788;2023-04-01T06:05:28;21.20;63.10
909;DHT22;441;51.192;6.788;2023-04-01T06:07:59;21.20;63.00
909;DHT22;441;51.192;6.788;2023-04-01T06:10:37;21.20;63.00
909;DHT22;441;51.192;6.788;2023-04-01T06:13:09;21.20;62.90
909;DHT22;441;51.192;6.788;2023-04-01T06:15:43;21.20;63.00
909;DHT22;441;51.192;6.788;2023-04-01T06:18:45;21.20;63.00
909;DHT22;441;51.192;6.788;2023-04-01T06:21:37;21.20;63.00
909;DHT22;441;51.192;6.788;2023-04-01T06:24:24;21.20;63.10
909;DHT22;441;51.192;6.788;2023-04-01T06:27:04;21.20;63.20
909;DHT22;441;51.192;6.788;2023-04-01T06:29:49;21.20;63.20
909;DHT22;441;51.192;6.788;2023-04-01T06:32:27;21.20;63.30
909;DHT22;441;51.192;6.788;2023-04-01T06:35:20;21.20;63.20
909;DHT22;441;51.192;6.788;2023-04-01T06:41:11;21.20;63.20
909;DHT22;441;51.192;6.788;2023-04-01T06:43:47;21.20;63.30
909;DHT22;441;51.192;6.788;2023-04-01T06:46:20;21.30;63.60
909;DHT22;441;51.192;6.788;2023-04-01T06:49:06;21.30;63.20
909;DHT22;441;51.192;6.788;2023-04-01T06:51:41;21.30;62.90
909;DHT22;441;51.192;6.788;2023-04-01T06:54:14;21.40;62.70
909;DHT22;441;51.192;6.788;2023-04-01T06:56:46;21.50;62.60
909;DHT22;441;51.192;6.788;2023-04-01T06:59:17;21.50;62.30
909;DHT22;441;51.192;6.788;2023-04-01T07:01:49;21.50;62.10
909;DHT22;441;51.192;6.788;2023-04-01T07:04:20;21.50;62.00
909;DHT22;441;51.192;6.788;2023-04-01T07:06:51;21.60;61.90
909;DHT22;441;51.192;6.788;2023-04-01T07:09:22;21.60;61.70
909;DHT22;441;51.192;6.788;2023-04-01T07:11:53;21.70;61.50
909;DHT22;441;51.192;6.788;2023-04-01T07:14:27;21.70;61.30
909;DHT22;441;51.192;6.788;2023-04-01T07:17:00;21.80;61.20
909;DHT22;441;51.192;6.788;2023-04-01T07:19:31;21.80;61.00
909;DHT22;441;51.192;6.788;2023-04-01T07:22:03;21.80;60.90
909;DHT22;441;51.192;6.788;2023-04-01T07:24:33;21.80;61.00
909;DHT22;441;51.192;6.788;2023-04-01T07:27:03;21.80;60.90
909;DHT22;441;51.192;6.788;2023-04-01T07:29:31;21.80;60.80
909;DHT22;441;51.192;6.788;2023-04-01T07:32:13;21.80;60.70
909;DHT22;441;51.192;6.788;2023-04-01T07:34:50;21.80;60.50
909;DHT22;441;51.192;6.788;2023-04-01T07:37:27;21.90;60.50
909;DHT22;441;51.192;6.788;2023-04-01T07:40:06;21.90;60.40
909;DHT22;441;51.192;6.788;2023-04-01T07:42:44;22.00;60.40
909;DHT22;441;51.192;6.788;2023-04-01T07:45:21;22.00;60.30
909;DHT22;441;51.192;6.788;2023-04-01T07:48:02;22.00;60.20
909;DHT22;441;51.192;6.788;2023-04-01T07:50:34;22.00;60.10
909;DHT22;441;51.192;6.788;2023-04-01T07:53:10;22.10;60.90
909;DHT22;441;51.192;6.788;2023-04-01T07:55:43;22.10;59.90
909;DHT22;441;51.192;6.788;2023-04-01T07:58:19;22.10;59.80
909;DHT22;441;51.192;6.788;2023-04-01T08:00:51;22.10;59.80
909;DHT22;441;51.192;6.788;2023-04-01T08:03:36;22.10;60.00
909;DHT22;441;51.192;6.788;2023-04-01T08:06:10;22.10;59.70
909;DHT22;441;51.192;6.788;2023-04-01T08:08:51;22.20;59.70
909;DHT22;441;51.192;6.788;2023-04-01T08:11:28;22.20;59.60
909;DHT22;441;51.192;6.788;2023-04-01T08:14:04;22.20;59.50
909;DHT22;441;51.192;6.788;2023-04-01T08:16:35;22.20;59.40
909;DHT22;441;51.192;6.788;2023-04-01T08:19:13;22.30;59.40
909;DHT22;441;51.192;6.788;2023-04-01T08:21:43;22.30;59.30
909;DHT22;441;51.192;6.788;2023-04-01T08:24:22;22.30;59.20
909;DHT22;441;51.192;6.788;2023-04-01T08:26:53;22.30;59.20
909;DHT22;441;51.192;6.788;2023-04-01T08:29:26;22.40;59.60
909;DHT22;441;51.192;6.788;2023-04-01T08:32:08;22.40;59.50
909;DHT22;441;51.192;6.788;2023-04-01T08:34:37;22.50;59.70
909;DHT22;441;51.192;6.788;2023-04-01T08:37:08;22.50;59.60
909;DHT22;441;51.192;6.788;2023-04-01T08:39:39;22.50;59.40
909;DHT22;441;51.192;6.788;2023-04-01T08:42:29;22.50;59.00
909;DHT22;441;51.192;6.788;2023-04-01T08:45:23;22.50;58.70
909;DHT22;441;51.192;6.788;2023-04-01T08:51:12;22.50;59.30
909;DHT22;441;51.192;6.788;2023-04-01T08:54:04;22.50;59.00
909;DHT22;441;51.192;6.788;2023-04-01T08:56:40;22.50;59.10
909;DHT22;441;51.192;6.788;2023-04-01T08:59:24;22.50;59.00
909;DHT22;441;51.192;6.788;2023-04-01T09:02:18;22.50;58.80
909;DHT22;441;51.192;6.788;2023-04-01T09:05:31;22.50;58.50
909;DHT22;441;51.192;6.788;2023-04-01T09:08:14;22.50;58.50
909;DHT22;441;51.192;6.788;2023-04-01T09:11:06;22.50;58.50
909;DHT22;441;51.192;6.788;2023-04-01T09:14:00;22.50;58.60
909;DHT22;441;51.192;6.788;2023-04-01T09:19:33;22.40;59.00
909;DHT22;441;51.192;6.788;2023-04-01T09:22:24;22.40;59.10
909;DHT22;441;51.192;6.788;2023-04-01T09:27:56;22.40;59.00
909;DHT22;441;51.192;6.788;2023-04-01T09:31:00;22.40;59.10
909;DHT22;441;51.192;6.788;2023-04-01T09:36:38;22.50;58.90
909;DHT22;441;51.192;6.788;2023-04-01T09:39:19;22.50;58.80
909;DHT22;441;51.192;6.788;2023-04-01T09:41:57;22.50;58.60
909;DHT22;441;51.192;6.788;2023-04-01T09:44:34;22.50;58.60
909;DHT22;441;51.192;6.788;2023-04-01T09:47:16;22.50;58.50
909;DHT22;441;51.192;6.788;2023-04-01T09:49:59;22.50;58.50
909;DHT22;441;51.192;6.788;2023-04-01T09:52:37;22.60;58.80
909;DHT22;441;51.192;6.788;2023-04-01T09:55:38;22.60;58.60
909;DHT22;441;51.192;6.788;2023-04-01T09:58:37;22.50;58.80
909;DHT22;441;51.192;6.788;2023-04-01T10:11:15;22.50;59.10
909;DHT22;441;51.192;6.788;2023-04-01T10:14:13;22.50;59.00
909;DHT22;441;51.192;6.788;2023-04-01T10:23:02;22.50;59.10
909;DHT22;441;51.192;6.788;2023-04-01T10:26:09;22.50;59.00
909;DHT22;441;51.192;6.788;2023-04-01T10:29:01;22.50;58.90
909;DHT22;441;51.192;6.788;2023-04-01T10:31:42;22.60;59.10
909;DHT22;441;51.192;6.788;2023-04-01T10:37:21;22.60;58.50
909;DHT22;441;51.192;6.788;2023-04-01T10:46:39;22.70;58.90
909;DHT22;441;51.192;6.788;2023-04-01T10:49:38;22.70;58.90
909;DHT22;441;51.192;6.788;2023-04-01T10:52:32;22.70;59.00
909;DHT22;441;51.192;6.788;2023-04-01T10:55:34;22.70;58.90
909;DHT22;441;51.192;6.788;2023-04-01T10:58:27;22.80;59.10
909;DHT22;441;51.192;6.788;2023-04-01T11:07:36;22.80;59.20
909;DHT22;441;51.192;6.788;2023-04-01T11:10:42;22.80;58.80
909;DHT22;441;51.192;6.788;2023-04-01T11:13:57;22.70;59.20
909;DHT22;441;51.192;6.788;2023-04-01T11:16:47;22.70;59.30
909;DHT22;441;51.192;6.788;2023-04-01T11:22:56;22.70;59.50
909;DHT22;441;51.192;6.788;2023-04-01T11:25:48;22.70;59.50
909;DHT22;441;51.192;6.788;2023-04-01T11:28:44;22.70;59.60
909;DHT22;441;51.192;6.788;2023-04-01T11:31:29;22.70;59.60
909;DHT22;441;51.192;6.788;2023-04-01T11:34:11;22.60;59.50
909;DHT22;441;51.192;6.788;2023-04-01T11:36:47;22.70;59.70
909;DHT22;441;51.192;6.788;2023-04-01T11:39:24;22.70;59.60
909;DHT22;441;51.192;6.788;2023-04-01T11:42:04;22.60;59.50
909;DHT22;441;51.192;6.788;2023-04-01T11:44:41;22.70;59.40
909;DHT22;441;51.192;6.788;2023-04-01T11:50:21;22.70;59.30
909;DHT22;441;51.192;6.788;2023-04-01T11:53:15;22.70;59.20
909;DHT22;441;51.192;6.788;2023-04-01T11:55:56;22.70;59.20
909;DHT22;441;51.192;6.788;2023-04-01T11:58:47;22.70;59.20
909;DHT22;441;51.192;6.788;2023-04-01T12:01:22;22.70;59.40
909;DHT22;441;51.192;6.788;2023-04-01T12:06:51;22.70;59.80
909;DHT22;441;51.192;6.788;2023-04-01T12:09:28;22.70;59.40
909;DHT22;441;51.192;6.788;2023-04-01T12:12:09;22.70;59.30
909;DHT22;441;51.192;6.788;2023-04-01T12:14:45;22.70;59.20
909;DHT22;441;51.192;6.788;2023-04-01T12:17:28;22.70;58.80
909;DHT22;441;51.192;6.788;2023-04-01T12:20:02;22.70;58.70
909;DHT22;441;51.192;6.788;2023-04-01T12:22:45;22.70;59.20
909;DHT22;441;51.192;6.788;2023-04-01T12:25:25;22.70;59.10
909;DHT22;441;51.192;6.788;2023-04-01T12:28:01;22.70;59.10
909;DHT22;441;51.192;6.788;2023-04-01T12:30:42;22.80;59.10
909;DHT22;441;51.192;6.788;2023-04-01T12:33:54;22.80;59.00
909;DHT22;441;51.192;6.788;2023-04-01T12:36:42;22.90;59.00
909;DHT22;441;51.192;6.788;2023-04-01T12:39:43;22.90;59.00
909;DHT22;441;51.192;6.788;2023-04-01T12:42:18;22.90;58.90
909;DHT22;441;51.192;6.788;2023-04-01T12:45:02;22.90;58.80
909;DHT22;441;51.192;6.788;2023-04-01T12:47:53;22.90;58.80
909;DHT22;441;51.192;6.788;2023-04-01T12:50:38;22.90;59.20
909;DHT22;441;51.192;6.788;2023-04-01T12:53:20;23.00;58.70
909;DHT22;441;51.192;6.788;2023-04-01T12:55:50;23.00;58.60
909;DHT22;441;51.192;6.788;2023-04-01T13:01:46;23.00;58.60
909;DHT22;441;51.192;6.788;2023-04-01T13:05:01;23.00;58.60
909;DHT22;441;51.192;6.788;2023-04-01T13:07:54;23.00;58.50
909;DHT22;441;51.192;6.788;2023-04-01T13:10:32;23.00;58.50
909;DHT22;441;51.192;6.788;2023-04-01T13:13:39;23.00;58.50
909;DHT22;441;51.192;6.788;2023-04-01T13:16:12;23.00;58.30
909;DHT22;441;51.192;6.788;2023-04-01T13:18:51;22.90;58.60
909;DHT22;441;51.192;6.788;2023-04-01T13:21:29;22.90;59.00
909;DHT22;441;51.192;6.788;2023-04-01T13:24:05;22.90;58.90
909;DHT22;441;51.192;6.788;2023-04-01T13:26:37;22.80;58.80
909;DHT22;441;51.192;6.788;2023-04-01T13:29:11;22.90;58.70
909;DHT22;441;51.192;6.788;2023-04-01T13:31:51;22.90;58.60
909;DHT22;441;51.192;6.788;2023-04-01T13:34:33;22.80;58.50
909;DHT22;441;51.192;6.788;2023-04-01T13:37:18;22.90;58.50
909;DHT22;441;51.192;6.788;2023-04-01T13:42:41;22.80;58.50
909;DHT22;441;51.192;6.788;2023-04-01T13:45:15;22.80;58.50
909;DHT22;441;51.192;6.788;2023-04-01T13:51:25;22.90;58.50
909;DHT22;441;51.192;6.788;2023-04-01T13:57:05;22.90;58.40
909;DHT22;441;51.192;6.788;2023-04-01T13:59:50;22.90;58.40
909;DHT22;441;51.192;6.788;2023-04-01T14:02:32;22.90;58.30
909;DHT22;441;51.192;6.788;2023-04-01T14:05:13;22.90;58.30
909;DHT22;441;51.192;6.788;2023-04-01T14:07:54;22.90;58.40
909;DHT22;441;51.192;6.788;2023-04-01T14:10:33;22.90;58.40
909;DHT22;441;51.192;6.788;2023-04-01T14:13:07;22.90;58.40
909;DHT22;441;51.192;6.788;2023-04-01T14:15:48;22.90;58.50
909;DHT22;441;51.192;6.788;2023-04-01T14:18:37;22.90;58.50
909;DHT22;441;51.192;6.788;2023-04-01T14:21:23;22.80;58.50
909;DHT22;441;51.192;6.788;2023-04-01T14:24:12;22.80;58.50
909;DHT22;441;51.192;6.788;2023-04-01T14:27:10;22.80;58.50
909;DHT22;441;51.192;6.788;2023-04-01T14:29:46;22.80;58.60
909;DHT22;441;51.192;6.788;2023-04-01T14:32:24;22.80;58.50
909;DHT22;441;51.192;6.788;2023-04-01T14:35:05;22.80;58.50
909;DHT22;441;51.192;6.788;2023-04-01T14:40:56;22.80;58.60
909;DHT22;441;51.192;6.788;2023-04-01T14:44:04;22.80;58.70
909;DHT22;441;51.192;6.788;2023-04-01T14:47:09;22.70;59.00
909;DHT22;441;51.192;6.788;2023-04-01T14:49:40;22.70;59.20
909;DHT22;441;51.192;6.788;2023-04-01T14:52:13;22.70;59.20
909;DHT22;441;51.192;6.788;2023-04-01T14:54:44;22.70;59.20
909;DHT22;441;51.192;6.788;2023-04-01T14:57:14;22.70;59.30
909;DHT22;441;51.192;6.788;2023-04-01T14:59:49;22.70;59.30
909;DHT22;441;51.192;6.788;2023-04-01T15:05:31;22.60;59.20
909;DHT22;441;51.192;6.788;2023-04-01T15:08:10;22.70;59.30
909;DHT22;441;51.192;6.788;2023-04-01T15:14:08;22.70;59.30
909;DHT22;441;51.192;6.788;2023-04-01T15:16:47;22.60;59.20
909;DHT22;441;51.192;6.788;2023-04-01T15:19:27;22.70;59.40
909;DHT22;441;51.192;6.788;2023-04-01T15:22:39;22.60;59.20
909;DHT22;441;51.192;6.788;2023-04-01T15:25:22;22.60;59.30
909;DHT22;441;51.192;6.788;2023-04-01T15:27:57;22.60;59.20
909;DHT22;441;51.192;6.788;2023-04-01T15:30:32;22.60;59.30
909;DHT22;441;51.192;6.788;2023-04-01T15:33:27;22.60;59.20
909;DHT22;441;51.192;6.788;2023-04-01T15:36:04;22.60;59.00
909;DHT22;441;51.192;6.788;2023-04-01T15:38:36;22.60;58.90
909;DHT22;441;51.192;6.788;2023-04-01T15:41:14;22.60;58.70
909;DHT22;441;51.192;6.788;2023-04-01T15:43:43;22.60;58.70
909;DHT22;441;51.192;6.788;2023-04-01T15:46:42;22.60;58.60
909;DHT22;441;51.192;6.788;2023-04-01T15:49:24;22.70;58.80
909;DHT22;441;51.192;6.788;2023-04-01T15:52:05;22.70;59.20
909;DHT22;441;51.192;6.788;2023-04-01T15:55:00;22.60;60.70
909;DHT22;441;51.192;6.788;2023-04-01T15:57:40;22.60;66.90
909;DHT22;441;51.192;6.788;2023-04-01T16:00:30;22.60;70.10
909;DHT22;441;51.192;6.788;2023-04-01T16:03:17;22.60;70.10
909;DHT22;441;51.192;6.788;2023-04-01T16:08:50;22.50;68.10
909;DHT22;441;51.192;6.788;2023-04-01T16:11:27;22.50;68.00
909;DHT22;441;51.192;6.788;2023-04-01T16:14:07;22.50;66.80
909;DHT22;441;51.192;6.788;2023-04-01T16:16:57;22.50;65.80
909;DHT22;441;51.192;6.788;2023-04-01T16:19:37;22.50;67.70
909;DHT22;441;51.192;6.788;2023-04-01T16:22:13;22.50;69.20
909;DHT22;441;51.192;6.788;2023-04-01T16:24:46;22.50;69.40
909;DHT22;441;51.192;6.788;2023-04-01T16:27:18;22.50;69.20
909;DHT22;441;51.192;6.788;2023-04-01T16:29:48;22.40;69.00
909;DHT22;441;51.192;6.788;2023-04-01T16:32:23;22.40;68.90
909;DHT22;441;51.192;6.788;2023-04-01T16:35:01;22.40;68.60
909;DHT22;441;51.192;6.788;2023-04-01T16:37:37;22.40;68.70
909;DHT22;441;51.192;6.788;2023-04-01T16:40:15;22.40;68.50
909;DHT22;441;51.192;6.788;2023-04-01T16:42:47;22.40;68.00
909;DHT22;441;51.192;6.788;2023-04-01T16:45:23;22.40;68.10
909;DHT22;441;51.192;6.788;2023-04-01T16:47:55;22.40;68.10
909;DHT22;441;51.192;6.788;2023-04-01T16:50:25;22.40;68.10
909;DHT22;441;51.192;6.788;2023-04-01T16:53:09;22.40;68.00
909;DHT22;441;51.192;6.788;2023-04-01T16:55:46;22.40;68.00
909;DHT22;441;51.192;6.788;2023-04-01T16:58:20;22.40;68.00
909;DHT22;441;51.192;6.788;2023-04-01T17:00:50;22.30;67.80
909;DHT22;441;51.192;6.788;2023-04-01T17:03:25;22.40;67.40
909;DHT22;441;51.192;6.788;2023-04-01T17:06:02;22.40;66.70
909;DHT22;441;51.192;6.788;2023-04-01T17:08:49;22.50;66.20
909;DHT22;441;51.192;6.788;2023-04-01T17:11:23;22.50;65.50
909;DHT22;441;51.192;6.788;2023-04-01T17:13:59;22.50;65.00
909;DHT22;441;51.192;6.788;2023-04-01T17:19:36;22.50;64.10
909;DHT22;441;51.192;6.788;2023-04-01T17:22:13;22.50;63.80
909;DHT22;441;51.192;6.788;2023-04-01T17:24:55;22.50;63.40
909;DHT22;441;51.192;6.788;2023-04-01T17:27:31;22.40;63.00
909;DHT22;441;51.192;6.788;2023-04-01T17:30:12;22.40;62.90
909;DHT22;441;51.192;6.788;2023-04-01T17:32:51;22.40;62.60
909;DHT22;441;51.192;6.788;2023-04-01T17:35:27;22.40;62.50
909;DHT22;441;51.192;6.788;2023-04-01T17:38:08;22.40;62.20
909;DHT22;441;51.192;6.788;2023-04-01T17:40:53;22.30;63.70
909;DHT22;441;51.192;6.788;2023-04-01T17:43:30;22.20;64.70
909;DHT22;441;51.192;6.788;2023-04-01T17:46:05;22.20;66.70
909;DHT22;441;51.192;6.788;2023-04-01T17:48:41;22.20;69.20
909;DHT22;441;51.192;6.788;2023-04-01T17:51:19;22.10;68.90
909;DHT22;441;51.192;6.788;2023-04-01T17:53:52;22.10;68.80
909;DHT22;441;51.192;6.788;2023-04-01T17:56:41;22.10;68.80
909;DHT22;441;51.192;6.788;2023-04-01T17:59:18;22.10;69.10
909;DHT22;441;51.192;6.788;2023-04-01T18:01:54;22.10;68.60
909;DHT22;441;51.192;6.788;2023-04-01T18:04:47;22.20;68.00
909;DHT22;441;51.192;6.788;2023-04-01T18:07:34;22.20;67.00
909;DHT22;441;51.192;6.788;2023-04-01T18:10:17;22.20;66.90
909;DHT22;441;51.192;6.788;2023-04-01T18:13:10;22.20;67.10
909;DHT22;441;51.192;6.788;2023-04-01T18:15:42;22.20;67.50
909;DHT22;441;51.192;6.788;2023-04-01T18:18:26;22.30;67.60
909;DHT22;441;51.192;6.788;2023-04-01T18:21:05;22.30;68.20
909;DHT22;441;51.192;6.788;2023-04-01T18:23:40;22.40;67.90
909;DHT22;441;51.192;6.788;2023-04-01T18:26:12;22.50;67.80
909;DHT22;441;51.192;6.788;2023-04-01T18:28:45;22.50;68.50
909;DHT22;441;51.192;6.788;2023-04-01T18:31:19;22.60;69.40
909;DHT22;441;51.192;6.788;2023-04-01T18:33:54;22.60;68.20
909;DHT22;441;51.192;6.788;2023-04-01T18:36:33;22.70;68.00
909;DHT22;441;51.192;6.788;2023-04-01T18:39:09;22.70;67.20
909;DHT22;441;51.192;6.788;2023-04-01T18:41:56;22.70;66.90
909;DHT22;441;51.192;6.788;2023-04-01T18:44:31;22.70;66.90
909;DHT22;441;51.192;6.788;2023-04-01T18:47:08;22.80;66.80
909;DHT22;441;51.192;6.788;2023-04-01T18:49:44;22.80;66.60
909;DHT22;441;51.192;6.788;2023-04-01T18:52:18;22.80;67.10
909;DHT22;441;51.192;6.788;2023-04-01T18:55:15;22.80;65.70
909;DHT22;441;51.192;6.788;2023-04-01T18:57:41;22.80;65.60
909;DHT22;441;51.192;6.788;2023-04-01T19:00:20;22.90;65.60
909;DHT22;441;51.192;6.788;2023-04-01T19:02:52;22.90;65.40
909;DHT22;441;51.192;6.788;2023-04-01T19:05:30;23.00;65.30